sensor_id;sensor_type;location;lat;lon;timestamp;pressure;altitude;pressure_sealevel;temperature;humidity
59600;BME280;61855;55.030;73.326;2022-09-03T00:01:19;100006.91;;;15.99;73.91
59600;BME280;61855;55.030;73.326;2022-09-03T00:03:51;99999.78;;;15.98;74.23
59600;BME280;61855;55.030;73.326;2022-09-03T00:06:42;100000.03;;;15.97;74.00
59600;BME280;61855;55.030;73.326;2022-09-03T00:09:24;100004.00;;;15.94;74.20
59600;BME280;61855;55.030;73.326;2022-09-03T00:12:41;99992.50;;;15.92;74.32
59600;BME280;61855;55.030;73.326;2022-09-03T00:14:54;99991.25;;;15.95;74.22
59600;BME280;61855;55.030;73.326;2022-09-03T00:17:50;99992.06;;;15.95;74.25
59600;BME280;61855;55.030;73.326;2022-09-03T00:20:33;99989.34;;;15.95;74.33
59600;BME280;61855;55.030;73.326;2022-09-03T00:23:09;99981.81;;;15.97;74.24
59600;BME280;61855;55.030;73.326;2022-09-03T00:25:48;99997.06;;;15.98;74.38
59600;BME280;61855;55.030;73.326;2022-09-03T00:28:27;99992.25;;;16.00;74.16
59600;BME280;61855;55.030;73.326;2022-09-03T00:31:19;99990.56;;;16.06;74.26
59600;BME280;61855;55.030;73.326;2022-09-03T00:33:55;100005.19;;;16.11;73.90
59600;BME280;61855;55.030;73.326;2022-09-03T00:36:35;100007.25;;;16.16;73.60
59600;BME280;61855;55.030;73.326;2022-09-03T00:39:18;99994.63;;;16.21;73.42
59600;BME280;61855;55.030;73.326;2022-09-03T00:47:34;99987.72;;;16.25;73.28
59600;BME280;61855;55.030;73.326;2022-09-03T00:53:19;99971.56;;;16.31;73.15
59600;BME280;61855;55.030;73.326;2022-09-03T00:56:36;99978.22;;;16.35;73.11
59600;BME280;61855;55.030;73.326;2022-09-03T01:02:40;99976.28;;;16.42;72.75
59600;BME280;61855;55.030;73.326;2022-09-03T01:05:20;99968.91;;;16.49;72.62
59600;BME280;61855;55.030;73.326;2022-09-03T01:11:12;99970.56;;;16.56;72.30
59600;BME280;61855;55.030;73.326;2022-09-03T01:16:48;99956.28;;;16.61;72.09
59600;BME280;61855;55.030;73.326;2022-09-03T01:19:22;99965.66;;;16.65;72.12
59600;BME280;61855;55.030;73.326;2022-09-03T01:30:16;99956.13;;;16.80;71.22
59600;BME280;61855;55.030;73.326;2022-09-03T01:41:28;99952.06;;;17.08;70.52
59600;BME280;61855;55.030;73.326;2022-09-03T01:47:21;99935.13;;;17.24;70.09
59600;BME280;61855;55.030;73.326;2022-09-03T01:50:15;99932.78;;;17.27;69.82
59600;BME280;61855;55.030;73.326;2022-09-03T01:53:02;99932.03;;;17.38;69.29
59600;BME280;61855;55.030;73.326;2022-09-03T01:55:45;99929.84;;;17.47;69.07
59600;BME280;61855;55.030;73.326;2022-09-03T01:58:34;99925.16;;;17.54;69.02
59600;BME280;61855;55.030;73.326;2022-09-03T02:01:09;99923.78;;;17.63;68.38
59600;BME280;61855;55.030;73.326;2022-09-03T02:03:40;99920.72;;;17.71;68.04
59600;BME280;61855;55.030;73.326;2022-09-03T02:06:10;99925.88;;;17.79;67.61
59600;BME280;61855;55.030;73.326;2022-09-03T02:08:46;99923.66;;;17.88;67.28
59600;BME280;61855;55.030;73.326;2022-09-03T02:11:17;99929.25;;;17.93;67.25
59600;BME280;61855;55.030;73.326;2022-09-03T02:13:52;99927.03;;;18.01;66.60
59600;BME280;61855;55.030;73.326;2022-09-03T02:16:22;99919.34;;;18.10;66.58
59600;BME280;61855;55.030;73.326;2022-09-03T02:18:53;99912.34;;;18.14;66.32
59600;BME280;61855;55.030;73.326;2022-09-03T02:21:21;99910.72;;;18.24;66.05
59600;BME280;61855;55.030;73.326;2022-09-03T02:23:52;99909.78;;;18.31;65.64
59600;BME280;61855;55.030;73.326;2022-09-03T02:26:21;99912.19;;;18.39;65.35
59600;BME280;61855;55.030;73.326;2022-09-03T02:28:49;99909.59;;;18.44;65.08
59600;BME280;61855;55.030;73.326;2022-09-03T02:31:15;99901.75;;;18.47;64.84
59600;BME280;61855;55.030;73.326;2022-09-03T02:33:45;99903.09;;;18.56;64.84
59600;BME280;61855;55.030;73.326;2022-09-03T02:36:20;99891.22;;;18.62;64.16
59600;BME280;61855;55.030;73.326;2022-09-03T02:38:51;99888.38;;;18.69;63.88
59600;BME280;61855;55.030;73.326;2022-09-03T02:41:18;99890.16;;;18.75;63.78
59600;BME280;61855;55.030;73.326;2022-09-03T02:46:26;99883.59;;;18.87;62.98
59600;BME280;61855;55.030;73.326;2022-09-03T02:48:54;99879.69;;;18.95;62.83
59600;BME280;61855;55.030;73.326;2022-09-03T02:51:21;99880.75;;;19.06;62.37
59600;BME280;61855;55.030;73.326;2022-09-03T02:53:47;99869.69;;;19.12;61.60
59600;BME280;61855;55.030;73.326;2022-09-03T02:56:13;99878.59;;;19.19;61.80
59600;BME280;61855;55.030;73.326;2022-09-03T02:58:39;99871.91;;;19.27;61.23
59600;BME280;61855;55.030;73.326;2022-09-03T03:01:06;99874.06;;;19.36;61.20
59600;BME280;61855;55.030;73.326;2022-09-03T03:03:32;99877.50;;;19.43;61.12
59600;BME280;61855;55.030;73.326;2022-09-03T03:06:01;99871.53;;;19.46;60.43
59600;BME280;61855;55.030;73.326;2022-09-03T03:08:28;99864.03;;;19.53;60.17
59600;BME280;61855;55.030;73.326;2022-09-03T03:10:56;99864.47;;;19.62;59.76
59600;BME280;61855;55.030;73.326;2022-09-03T03:13:27;99869.31;;;19.72;59.72
59600;BME280;61855;55.030;73.326;2022-09-03T03:16:04;99857.63;;;19.76;59.47
59600;BME280;61855;55.030;73.326;2022-09-03T03:18:33;99855.81;;;19.82;59.16
59600;BME280;61855;55.030;73.326;2022-09-03T03:21:07;99856.50;;;19.89;59.12
59600;BME280;61855;55.030;73.326;2022-09-03T03:23:35;99859.91;;;19.96;58.90
59600;BME280;61855;55.030;73.326;2022-09-03T03:26:03;99849.63;;;20.03;58.36
59600;BME280;61855;55.030;73.326;2022-09-03T03:28:30;99852.19;;;20.09;57.98
59600;BME280;61855;55.030;73.326;2022-09-03T03:33:32;99854.66;;;20.22;57.60
59600;BME280;61855;55.030;73.326;2022-09-03T03:36:14;99844.38;;;20.30;57.31
59600;BME280;61855;55.030;73.326;2022-09-03T03:38:42;99847.78;;;20.37;57.14
59600;BME280;61855;55.030;73.326;2022-09-03T03:41:09;99845.69;;;20.44;56.75
59600;BME280;61855;55.030;73.326;2022-09-03T03:43:36;99844.19;;;20.53;56.40
59600;BME280;61855;55.030;73.326;2022-09-03T03:46:02;99833.88;;;20.60;56.26
59600;BME280;61855;55.030;73.326;2022-09-03T03:48:30;99838.13;;;20.67;55.97
59600;BME280;61855;55.030;73.326;2022-09-03T03:51:05;99831.63;;;20.73;55.64
59600;BME280;61855;55.030;73.326;2022-09-03T03:53:36;99828.38;;;20.76;55.73
59600;BME280;61855;55.030;73.326;2022-09-03T03:56:05;99822.47;;;20.84;55.61
59600;BME280;61855;55.030;73.326;2022-09-03T03:58:38;99824.19;;;20.90;55.52
59600;BME280;61855;55.030;73.326;2022-09-03T04:01:24;99829.81;;;21.01;54.94
59600;BME280;61855;55.030;73.326;2022-09-03T04:03:53;99805.38;;;20.99;54.94
59600;BME280;61855;55.030;73.326;2022-09-03T04:06:25;99814.94;;;21.13;55.24
59600;BME280;61855;55.030;73.326;2022-09-03T04:08:57;99812.56;;;21.22;54.87
59600;BME280;61855;55.030;73.326;2022-09-03T04:11:23;99822.84;;;21.31;54.85
59600;BME280;61855;55.030;73.326;2022-09-03T04:13:51;99821.56;;;21.39;54.69
59600;BME280;61855;55.030;73.326;2022-09-03T04:16:19;99823.59;;;21.48;54.25
59600;BME280;61855;55.030;73.326;2022-09-03T04:18:52;99818.47;;;21.57;54.15
59600;BME280;61855;55.030;73.326;2022-09-03T04:21:22;99821.06;;;21.69;54.53
59600;BME280;61855;55.030;73.326;2022-09-03T04:23:50;99811.88;;;21.80;53.88
59600;BME280;61855;55.030;73.326;2022-09-03T04:26:19;99817.00;;;21.98;53.52
59600;BME280;61855;55.030;73.326;2022-09-03T04:28:57;99802.03;;;22.10;53.39
59600;BME280;61855;55.030;73.326;2022-09-03T04:31:24;99809.03;;;22.28;53.03
59600;BME280;61855;55.030;73.326;2022-09-03T04:33:55;99799.88;;;22.54;52.60
59600;BME280;61855;55.030;73.326;2022-09-03T04:36:27;99794.56;;;22.84;51.84
59600;BME280;61855;55.030;73.326;2022-09-03T04:38:54;99795.28;;;23.12;51.43
59600;BME280;61855;55.030;73.326;2022-09-03T04:41:31;99792.41;;;23.38;50.51
59600;BME280;61855;55.030;73.326;2022-09-03T04:44:02;99786.97;;;23.69;48.89
59600;BME280;61855;55.030;73.326;2022-09-03T04:46:37;99791.13;;;23.96;47.90
59600;BME280;61855;55.030;73.326;2022-09-03T04:49:09;99797.78;;;24.31;46.84
59600;BME280;61855;55.030;73.326;2022-09-03T04:51:35;99798.31;;;24.58;45.45
59600;BME280;61855;55.030;73.326;2022-09-03T04:54:03;99801.59;;;24.85;45.27
59600;BME280;61855;55.030;73.326;2022-09-03T04:56:39;99803.19;;;25.06;44.87
59600;BME280;61855;55.030;73.326;2022-09-03T04:59:15;99799.53;;;25.26;44.73
59600;BME280;61855;55.030;73.326;2022-09-03T05:01:45;99795.28;;;25.53;44.23
59600;BME280;61855;55.030;73.326;2022-09-03T05:04:16;99786.81;;;25.84;43.86
59600;BME280;61855;55.030;73.326;2022-09-03T05:06:42;99790.22;;;26.09;43.54
59600;BME280;61855;55.030;73.326;2022-09-03T05:09:10;99786.41;;;26.34;43.05
59600;BME280;61855;55.030;73.326;2022-09-03T05:11:38;99773.56;;;26.48;43.31
59600;BME280;61855;55.030;73.326;2022-09-03T05:14:09;99771.78;;;26.62;42.29
59600;BME280;61855;55.030;73.326;2022-09-03T05:16:37;99758.09;;;26.76;41.46
59600;BME280;61855;55.030;73.326;2022-09-03T05:19:13;99771.22;;;26.89;41.82
59600;BME280;61855;55.030;73.326;2022-09-03T05:21:40;99768.66;;;26.98;41.25
59600;BME280;61855;55.030;73.326;2022-09-03T05:24:08;99765.22;;;27.06;41.27
59600;BME280;61855;55.030;73.326;2022-09-03T05:26:38;99767.03;;;27.15;40.83
59600;BME280;61855;55.030;73.326;2022-09-03T05:29:05;99761.69;;;27.24;40.87
59600;BME280;61855;55.030;73.326;2022-09-03T05:31:38;99758.22;;;27.32;40.15
59600;BME280;61855;55.030;73.326;2022-09-03T05:34:05;99757.53;;;27.45;39.48
59600;BME280;61855;55.030;73.326;2022-09-03T05:36:34;99758.38;;;27.64;39.13
59600;BME280;61855;55.030;73.326;2022-09-03T05:39:00;99756.94;;;27.85;38.12
59600;BME280;61855;55.030;73.326;2022-09-03T05:41:36;99749.66;;;28.08;36.22
59600;BME280;61855;55.030;73.326;2022-09-03T05:44:07;99751.34;;;28.23;35.50
59600;BME280;61855;55.030;73.326;2022-09-03T05:46:44;99745.47;;;28.43;34.62
59600;BME280;61855;55.030;73.326;2022-09-03T05:49:10;99744.16;;;28.67;32.76
59600;BME280;61855;55.030;73.326;2022-09-03T05:51:37;99727.41;;;28.86;31.71
59600;BME280;61855;55.030;73.326;2022-09-03T05:54:15;99732.06;;;29.04;30.31
59600;BME280;61855;55.030;73.326;2022-09-03T05:56:42;99733.28;;;29.12;30.42
59600;BME280;61855;55.030;73.326;2022-09-03T05:59:17;99746.88;;;29.13;29.61
59600;BME280;61855;55.030;73.326;2022-09-03T06:01:44;99735.75;;;29.13;29.22
59600;BME280;61855;55.030;73.326;2022-09-03T06:04:13;99742.97;;;29.14;29.00
59600;BME280;61855;55.030;73.326;2022-09-03T06:06:42;99740.78;;;29.11;29.29
59600;BME280;61855;55.030;73.326;2022-09-03T06:09:20;99733.19;;;29.03;28.95
59600;BME280;61855;55.030;73.326;2022-09-03T06:11:47;99740.59;;;28.94;28.58
59600;BME280;61855;55.030;73.326;2022-09-03T06:14:19;99729.78;;;28.79;28.65
59600;BME280;61855;55.030;73.326;2022-09-03T06:16:50;99735.94;;;28.62;28.42
59600;BME280;61855;55.030;73.326;2022-09-03T06:19:17;99734.88;;;28.45;28.07
59600;BME280;61855;55.030;73.326;2022-09-03T06:21:46;99735.97;;;28.30;27.82
59600;BME280;61855;55.030;73.326;2022-09-03T06:24:18;99728.03;;;28.24;28.23
59600;BME280;61855;55.030;73.326;2022-09-03T06:26:47;99741.16;;;28.18;28.71
59600;BME280;61855;55.030;73.326;2022-09-03T06:29:15;99735.94;;;28.16;29.04
59600;BME280;61855;55.030;73.326;2022-09-03T06:31:43;99742.09;;;28.13;29.17
59600;BME280;61855;55.030;73.326;2022-09-03T06:34:09;99742.28;;;28.17;28.56
59600;BME280;61855;55.030;73.326;2022-09-03T06:36:36;99737.56;;;28.17;28.38
59600;BME280;61855;55.030;73.326;2022-09-03T06:39:12;99749.09;;;28.25;28.04
59600;BME280;61855;55.030;73.326;2022-09-03T06:41:38;99744.69;;;28.24;27.90
59600;BME280;61855;55.030;73.326;2022-09-03T06:44:07;99753.00;;;28.24;27.18
59600;BME280;61855;55.030;73.326;2022-09-03T06:46:38;99751.88;;;28.25;27.17
59600;BME280;61855;55.030;73.326;2022-09-03T06:49:09;99741.28;;;28.27;27.11
59600;BME280;61855;55.030;73.326;2022-09-03T06:51:36;99737.91;;;28.30;26.38
59600;BME280;61855;55.030;73.326;2022-09-03T06:54:05;99728.47;;;28.31;26.49
59600;BME280;61855;55.030;73.326;2022-09-03T06:56:33;99727.84;;;28.34;26.79
59600;BME280;61855;55.030;73.326;2022-09-03T06:59:03;99728.97;;;28.33;26.73
59600;BME280;61855;55.030;73.326;2022-09-03T07:01:30;99728.28;;;28.41;27.23
59600;BME280;61855;55.030;73.326;2022-09-03T07:03:59;99737.03;;;28.48;27.24
59600;BME280;61855;55.030;73.326;2022-09-03T07:06:28;99722.53;;;28.51;26.70
59600;BME280;61855;55.030;73.326;2022-09-03T07:08:54;99728.25;;;28.59;27.20
59600;BME280;61855;55.030;73.326;2022-09-03T07:11:24;99730.59;;;28.66;26.59
59600;BME280;61855;55.030;73.326;2022-09-03T07:14:03;99737.09;;;28.75;26.60
59600;BME280;61855;55.030;73.326;2022-09-03T07:16:35;99736.91;;;28.85;25.92
59600;BME280;61855;55.030;73.326;2022-09-03T07:19:09;99742.94;;;29.01;26.31
59600;BME280;61855;55.030;73.326;2022-09-03T07:21:43;99745.19;;;29.12;26.60
59600;BME280;61855;55.030;73.326;2022-09-03T07:24:10;99762.31;;;29.19;25.96
59600;BME280;61855;55.030;73.326;2022-09-03T07:26:41;99763.25;;;29.28;26.16
59600;BME280;61855;55.030;73.326;2022-09-03T07:29:11;99753.03;;;29.37;26.59
59600;BME280;61855;55.030;73.326;2022-09-03T07:31:43;99759.84;;;29.45;26.54
59600;BME280;61855;55.030;73.326;2022-09-03T07:34:11;99756.13;;;29.49;26.44
59600;BME280;61855;55.030;73.326;2022-09-03T07:36:47;99768.47;;;29.57;28.02
59600;BME280;61855;55.030;73.326;2022-09-03T07:39:16;99767.63;;;29.57;29.39
59600;BME280;61855;55.030;73.326;2022-09-03T07:41:48;99753.84;;;29.52;28.17
59600;BME280;61855;55.030;73.326;2022-09-03T07:44:24;99763.28;;;29.64;27.48
59600;BME280;61855;55.030;73.326;2022-09-03T07:46:53;99762.13;;;29.65;27.05
59600;BME280;61855;55.030;73.326;2022-09-03T07:49:19;99758.22;;;29.66;26.92
59600;BME280;61855;55.030;73.326;2022-09-03T07:51:46;99731.44;;;29.70;27.20
59600;BME280;61855;55.030;73.326;2022-09-03T07:54:15;99755.34;;;29.71;27.08
59600;BME280;61855;55.030;73.326;2022-09-03T07:56:41;99763.59;;;29.76;26.58
59600;BME280;61855;55.030;73.326;2022-09-03T07:59:17;99757.28;;;29.84;27.22
59600;BME280;61855;55.030;73.326;2022-09-03T08:01:45;99761.06;;;29.88;26.68
59600;BME280;61855;55.030;73.326;2022-09-03T08:04:11;99758.16;;;29.93;27.12
59600;BME280;61855;55.030;73.326;2022-09-03T08:06:41;99771.38;;;30.10;27.14
59600;BME280;61855;55.030;73.326;2022-09-03T08:09:09;99775.56;;;30.21;26.39
59600;BME280;61855;55.030;73.326;2022-09-03T08:11:38;99782.22;;;30.34;26.76
59600;BME280;61855;55.030;73.326;2022-09-03T08:14:06;99782.16;;;30.47;26.26
59600;BME280;61855;55.030;73.326;2022-09-03T08:16:38;99783.34;;;30.55;26.13
59600;BME280;61855;55.030;73.326;2022-09-03T08:19:04;99780.84;;;30.75;25.96
59600;BME280;61855;55.030;73.326;2022-09-03T08:21:36;99783.84;;;30.88;25.92
59600;BME280;61855;55.030;73.326;2022-09-03T08:24:14;99799.44;;;30.89;26.00
59600;BME280;61855;55.030;73.326;2022-09-03T08:26:51;99783.78;;;31.01;25.58
59600;BME280;61855;55.030;73.326;2022-09-03T08:29:17;99800.03;;;31.08;25.71
59600;BME280;61855;55.030;73.326;2022-09-03T08:31:43;99781.34;;;31.17;25.64
59600;BME280;61855;55.030;73.326;2022-09-03T08:34:10;99795.19;;;31.30;26.04
59600;BME280;61855;55.030;73.326;2022-09-03T08:36:38;99789.94;;;31.29;26.12
59600;BME280;61855;55.030;73.326;2022-09-03T08:39:12;99778.91;;;31.15;26.49
59600;BME280;61855;55.030;73.326;2022-09-03T09:03:20;99790.66;;;30.42;28.45
59600;BME280;61855;55.030;73.326;2022-09-03T09:12:00;99797.56;;;29.73;30.98
59600;BME280;61855;55.030;73.326;2022-09-03T09:22:51;99742.75;;;29.24;30.96
59600;BME280;61855;55.030;73.326;2022-09-03T09:25:25;99751.50;;;29.31;29.92
59600;BME280;61855;55.030;73.326;2022-09-03T09:28:07;99748.09;;;29.34;30.82
59600;BME280;61855;55.030;73.326;2022-09-03T09:30:41;99742.88;;;29.33;30.91
59600;BME280;61855;55.030;73.326;2022-09-03T09:33:18;99734.22;;;29.34;30.80
59600;BME280;61855;55.030;73.326;2022-09-03T09:35:46;99729.88;;;29.42;31.20
59600;BME280;61855;55.030;73.326;2022-09-03T09:38:12;99734.50;;;29.46;33.28
59600;BME280;61855;55.030;73.326;2022-09-03T09:40:41;99739.72;;;29.48;32.62
59600;BME280;61855;55.030;73.326;2022-09-03T09:43:13;99736.00;;;29.52;33.11
59600;BME280;61855;55.030;73.326;2022-09-03T09:46:06;99730.34;;;29.58;32.92
59600;BME280;61855;55.030;73.326;2022-09-03T09:48:57;99731.75;;;29.69;33.01
59600;BME280;61855;55.030;73.326;2022-09-03T09:51:31;99731.66;;;29.74;33.21
59600;BME280;61855;55.030;73.326;2022-09-03T09:56:33;99734.44;;;29.74;33.36
59600;BME280;61855;55.030;73.326;2022-09-03T09:59:07;99736.44;;;29.60;32.56
59600;BME280;61855;55.030;73.326;2022-09-03T10:01:42;99733.97;;;29.44;32.50
59600;BME280;61855;55.030;73.326;2022-09-03T10:04:24;99741.81;;;29.29;33.23
59600;BME280;61855;55.030;73.326;2022-09-03T10:06:53;99759.31;;;29.16;33.06
59600;BME280;61855;55.030;73.326;2022-09-03T10:09:32;99759.75;;;29.09;32.73
59600;BME280;61855;55.030;73.326;2022-09-03T10:12:27;99758.91;;;29.09;31.94
59600;BME280;61855;55.030;73.326;2022-09-03T10:15:27;99736.59;;;29.00;32.43
59600;BME280;61855;55.030;73.326;2022-09-03T10:23:14;99719.28;;;30.02;32.23
59600;BME280;61855;55.030;73.326;2022-09-03T10:28:35;99695.13;;;30.33;34.15
59600;BME280;61855;55.030;73.326;2022-09-03T10:33:56;99674.25;;;30.53;35.94
59600;BME280;61855;55.030;73.326;2022-09-03T10:53:18;99643.63;;;31.01;32.71
59600;BME280;61855;55.030;73.326;2022-09-03T10:55:56;99640.56;;;30.71;32.91
59600;BME280;61855;55.030;73.326;2022-09-03T10:58:52;99626.25;;;30.47;33.08
59600;BME280;61855;55.030;73.326;2022-09-03T11:01:51;99622.75;;;30.33;33.04
59600;BME280;61855;55.030;73.326;2022-09-03T11:07:13;99610.94;;;30.05;32.63
59600;BME280;61855;55.030;73.326;2022-09-03T11:12:51;99613.59;;;29.80;33.54
59600;BME280;61855;55.030;73.326;2022-09-03T11:18:31;99624.09;;;29.83;33.80
59600;BME280;61855;55.030;73.326;2022-09-03T11:21:02;99625.72;;;29.84;33.97
59600;BME280;61855;55.030;73.326;2022-09-03T11:23:34;99620.34;;;29.87;34.30
59600;BME280;61855;55.030;73.326;2022-09-03T11:26:06;99626.63;;;29.93;35.62
59600;BME280;61855;55.030;73.326;2022-09-03T11:31:31;99615.69;;;30.05;35.77
59600;BME280;61855;55.030;73.326;2022-09-03T11:34:14;99611.38;;;30.60;35.62
59600;BME280;61855;55.030;73.326;2022-09-03T11:36:41;99603.31;;;31.75;33.70
59600;BME280;61855;55.030;73.326;2022-09-03T11:39:19;99600.84;;;33.25;31.26
59600;BME280;61855;55.030;73.326;2022-09-03T11:42:01;99587.25;;;34.34;28.71
59600;BME280;61855;55.030;73.326;2022-09-03T11:44:41;99601.00;;;35.11;26.97
59600;BME280;61855;55.030;73.326;2022-09-03T11:47:36;99597.66;;;35.73;26.00
59600;BME280;61855;55.030;73.326;2022-09-03T11:53:09;99572.59;;;36.55;25.23
59600;BME280;61855;55.030;73.326;2022-09-03T11:55:54;99575.84;;;36.73;24.65
59600;BME280;61855;55.030;73.326;2022-09-03T12:00:57;99566.81;;;36.98;23.86
59600;BME280;61855;55.030;73.326;2022-09-03T12:03:39;99557.69;;;37.20;23.24
59600;BME280;61855;55.030;73.326;2022-09-03T12:15:35;99525.63;;;37.06;22.57
59600;BME280;61855;55.030;73.326;2022-09-03T12:17:58;99519.06;;;37.02;22.67
59600;BME280;61855;55.030;73.326;2022-09-03T12:23:43;99503.97;;;35.93;23.62
59600;BME280;61855;55.030;73.326;2022-09-03T12:26:18;99509.97;;;35.49;24.22
59600;BME280;61855;55.030;73.326;2022-09-03T12:28:48;99508.91;;;35.25;24.02
59600;BME280;61855;55.030;73.326;2022-09-03T12:31:29;99506.09;;;35.53;23.71
59600;BME280;61855;55.030;73.326;2022-09-03T12:36:26;99489.13;;;35.77;24.04
59600;BME280;61855;55.030;73.326;2022-09-03T12:39:13;99477.91;;;35.77;24.17
59600;BME280;61855;55.030;73.326;2022-09-03T12:42:04;99474.91;;;35.70;24.56
59600;BME280;61855;55.030;73.326;2022-09-03T12:47:14;99465.28;;;35.00;25.72
59600;BME280;61855;55.030;73.326;2022-09-03T12:49:56;99454.66;;;33.93;27.58
59600;BME280;61855;55.030;73.326;2022-09-03T12:52:29;99453.09;;;33.60;27.83
59600;BME280;61855;55.030;73.326;2022-09-03T12:57:52;99442.13;;;32.89;28.83
59600;BME280;61855;55.030;73.326;2022-09-03T13:00:20;99427.00;;;32.69;28.99
59600;BME280;61855;55.030;73.326;2022-09-03T13:02:59;99422.53;;;32.56;28.95
59600;BME280;61855;55.030;73.326;2022-09-03T13:05:56;99422.59;;;32.19;29.51
59600;BME280;61855;55.030;73.326;2022-09-03T13:08:47;99415.75;;;31.78;30.19
59600;BME280;61855;55.030;73.326;2022-09-03T13:11:17;99409.97;;;31.37;30.56
59600;BME280;61855;55.030;73.326;2022-09-03T13:13:53;99408.09;;;30.77;31.73
59600;BME280;61855;55.030;73.326;2022-09-03T13:30:12;99359.91;;;28.10;35.53
59600;BME280;61855;55.030;73.326;2022-09-03T13:32:59;99362.09;;;27.73;35.94
59600;BME280;61855;55.030;73.326;2022-09-03T13:35:59;99350.38;;;27.35;36.55
59600;BME280;61855;55.030;73.326;2022-09-03T13:38:32;99342.25;;;27.11;36.57
59600;BME280;61855;55.030;73.326;2022-09-03T13:47:33;99332.47;;;26.54;36.72
59600;BME280;61855;55.030;73.326;2022-09-03T13:52:42;99314.06;;;26.31;36.90
59600;BME280;61855;55.030;73.326;2022-09-03T13:55:18;99311.63;;;26.25;36.73
59600;BME280;61855;55.030;73.326;2022-09-03T13:57:52;99299.97;;;26.09;36.97
59600;BME280;61855;55.030;73.326;2022-09-03T14:00:25;99290.66;;;26.05;37.21
59600;BME280;61855;55.030;73.326;2022-09-03T14:05:46;99287.97;;;26.00;36.89
59600;BME280;61855;55.030;73.326;2022-09-03T14:11:31;99275.03;;;25.95;36.97
59600;BME280;61855;55.030;73.326;2022-09-03T14:14:28;99261.56;;;25.89;37.10
59600;BME280;61855;55.030;73.326;2022-09-03T14:25:13;99237.84;;;25.88;36.71
59600;BME280;61855;55.030;73.326;2022-09-03T14:27:42;99224.69;;;25.80;36.87
59600;BME280;61855;55.030;73.326;2022-09-03T14:30:28;99221.66;;;25.81;36.98
59600;BME280;61855;55.030;73.326;2022-09-03T14:33:22;99208.03;;;25.85;36.76
59600;BME280;61855;55.030;73.326;2022-09-03T14:36:17;99205.28;;;25.85;36.61
59600;BME280;61855;55.030;73.326;2022-09-03T14:38:56;99187.56;;;25.86;36.61
59600;BME280;61855;55.030;73.326;2022-09-03T14:46:45;99165.53;;;25.81;36.67
59600;BME280;61855;55.030;73.326;2022-09-03T14:49:42;99162.47;;;25.82;36.42
59600;BME280;61855;55.030;73.326;2022-09-03T15:01:17;99135.06;;;25.86;37.08
59600;BME280;61855;55.030;73.326;2022-09-03T15:04:12;99114.91;;;25.85;37.81
59600;BME280;61855;55.030;73.326;2022-09-03T15:12:39;99102.41;;;25.88;37.73
59600;BME280;61855;55.030;73.326;2022-09-03T15:15:19;99085.00;;;25.87;37.15
59600;BME280;61855;55.030;73.326;2022-09-03T15:17:54;99085.59;;;25.84;37.52
59600;BME280;61855;55.030;73.326;2022-09-03T15:28:49;99071.06;;;25.79;36.78
59600;BME280;61855;55.030;73.326;2022-09-03T15:36:42;99060.13;;;25.74;37.04
59600;BME280;61855;55.030;73.326;2022-09-03T15:39:13;99053.56;;;25.70;37.03
59600;BME280;61855;55.030;73.326;2022-09-03T15:41:49;99046.56;;;25.72;36.89
59600;BME280;61855;55.030;73.326;2022-09-03T15:44:18;99040.53;;;25.70;36.99
59600;BME280;61855;55.030;73.326;2022-09-03T15:46:56;99028.06;;;25.73;36.63
59600;BME280;61855;55.030;73.326;2022-09-03T15:55:38;99005.63;;;25.61;36.79
59600;BME280;61855;55.030;73.326;2022-09-03T15:58:10;98995.41;;;25.61;36.66
59600;BME280;61855;55.030;73.326;2022-09-03T16:03:18;98979.44;;;25.58;36.66
59600;BME280;61855;55.030;73.326;2022-09-03T16:05:54;98963.78;;;25.53;36.45
59600;BME280;61855;55.030;73.326;2022-09-03T16:11:07;98949.69;;;25.55;36.53
59600;BME280;61855;55.030;73.326;2022-09-03T16:20:02;98932.88;;;25.51;36.11
59600;BME280;61855;55.030;73.326;2022-09-03T16:22:32;98929.84;;;25.53;35.88
59600;BME280;61855;55.030;73.326;2022-09-03T16:27:57;98918.28;;;25.65;35.07
59600;BME280;61855;55.030;73.326;2022-09-03T16:34:14;98901.88;;;25.82;34.87
59600;BME280;61855;55.030;73.326;2022-09-03T16:36:38;98902.81;;;25.91;34.38
59600;BME280;61855;55.030;73.326;2022-09-03T16:45:23;98903.31;;;26.20;33.58
59600;BME280;61855;55.030;73.326;2022-09-03T16:48:23;98903.69;;;26.27;33.05
59600;BME280;61855;55.030;73.326;2022-09-03T16:56:45;98904.63;;;26.36;32.84
59600;BME280;61855;55.030;73.326;2022-09-03T17:14:09;98907.50;;;26.53;32.00
59600;BME280;61855;55.030;73.326;2022-09-03T17:22:09;98897.38;;;26.62;31.51
59600;BME280;61855;55.030;73.326;2022-09-03T17:24:51;98900.13;;;26.62;31.45
59600;BME280;61855;55.030;73.326;2022-09-03T17:30:44;98886.34;;;26.71;30.47
59600;BME280;61855;55.030;73.326;2022-09-03T17:36:21;98885.34;;;26.67;30.83
59600;BME280;61855;55.030;73.326;2022-09-03T17:42:05;98886.25;;;26.76;30.22
59600;BME280;61855;55.030;73.326;2022-09-03T17:48:01;98888.25;;;26.84;30.30
59600;BME280;61855;55.030;73.326;2022-09-03T17:50:30;98887.63;;;26.87;30.28
59600;BME280;61855;55.030;73.326;2022-09-03T17:53:11;98886.69;;;26.92;30.47
59600;BME280;61855;55.030;73.326;2022-09-03T17:55:49;98883.47;;;26.98;29.95
59600;BME280;61855;55.030;73.326;2022-09-03T18:01:20;98901.16;;;27.11;29.61
59600;BME280;61855;55.030;73.326;2022-09-03T18:03:59;98896.09;;;27.13;29.83
59600;BME280;61855;55.030;73.326;2022-09-03T18:06:41;98893.03;;;27.14;29.90
59600;BME280;61855;55.030;73.326;2022-09-03T18:09:32;98911.28;;;27.15;29.79
59600;BME280;61855;55.030;73.326;2022-09-03T18:17:26;98913.38;;;27.10;29.55
59600;BME280;61855;55.030;73.326;2022-09-03T18:20:02;98916.31;;;27.13;29.78
59600;BME280;61855;55.030;73.326;2022-09-03T18:23:30;98926.06;;;27.11;29.91